sensor_id;sensor_type;location;lat;lon;timestamp;temperature;humidity
26262;DHT22;13988;52.446;13.280;2022-08-05T00:01:26;23.80;99.90
26262;DHT22;13988;52.446;13.280;2022-08-05T00:03:52;23.70;99.90
26262;DHT22;13988;52.446;13.280;2022-08-05T00:06:18;24.10;99.90
26262;DHT22;13988;52.446;13.280;2022-08-05T00:08:44;23.80;99.90
26262;DHT22;13988;52.446;13.280;2022-08-05T00:11:13;23.60;99.90
26262;DHT22;13988;52.446;13.280;2022-08-05T00:13:40;23.60;99.90
26262;DHT22;13988;52.446;13.280;2022-08-05T00:16:08;23.60;99.90
26262;DHT22;13988;52.446;13.280;2022-08-05T00:18:35;23.80;99.90
26262;DHT22;13988;52.446;13.280;2022-08-05T00:21:01;23.70;99.90
26262;DHT22;13988;52.446;13.280;2022-08-05T00:23:27;23.60;99.90
26262;DHT22;13988;52.446;13.280;2022-08-05T00:25:53;23.50;99.90
26262;DHT22;13988;52.446;13.280;2022-08-05T00:28:18;23.50;99.90
26262;DHT22;13988;52.446;13.280;2022-08-05T00:30:45;23.40;99.90
26262;DHT22;13988;52.446;13.280;2022-08-05T00:33:11;23.50;99.90
26262;DHT22;13988;52.446;13.280;2022-08-05T00:35:37;23.60;99.90
26262;DHT22;13988;52.446;13.280;2022-08-05T00:38:03;24.00;99.90
26262;DHT22;13988;52.446;13.280;2022-08-05T00:40:29;24.10;99.90
26262;DHT22;13988;52.446;13.280;2022-08-05T00:43:01;24.00;99.90
26262;DHT22;13988;52.446;13.280;2022-08-05T00:45:28;24.00;99.90
26262;DHT22;13988;52.446;13.280;2022-08-05T00:47:54;23.70;99.90
26262;DHT22;13988;52.446;13.280;2022-08-05T00:50:20;23.70;99.90
26262;DHT22;13988;52.446;13.280;2022-08-05T00:52:46;23.10;99.90
26262;DHT22;13988;52.446;13.280;2022-08-05T00:55:11;22.80;99.90
26262;DHT22;13988;52.446;13.280;2022-08-05T00:57:37;22.80;99.90
26262;DHT22;13988;52.446;13.280;2022-08-05T01:00:04;23.20;99.90
26262;DHT22;13988;52.446;13.280;2022-08-05T01:02:31;23.30;99.90
26262;DHT22;13988;52.446;13.280;2022-08-05T01:04:59;23.30;99.90
26262;DHT22;13988;52.446;13.280;2022-08-05T01:07:25;23.10;99.90
26262;DHT22;13988;52.446;13.280;2022-08-05T01:09:51;23.30;99.90
26262;DHT22;13988;52.446;13.280;2022-08-05T01:12:17;23.40;99.90
26262;DHT22;13988;52.446;13.280;2022-08-05T01:15:02;23.30;99.90
26262;DHT22;13988;52.446;13.280;2022-08-05T01:17:37;23.10;99.90
26262;DHT22;13988;52.446;13.280;2022-08-05T01:23:18;22.90;99.90
26262;DHT22;13988;52.446;13.280;2022-08-05T01:28:37;23.10;99.90
26262;DHT22;13988;52.446;13.280;2022-08-05T01:31:11;22.80;99.90
26262;DHT22;13988;52.446;13.280;2022-08-05T01:33:49;22.80;99.90
26262;DHT22;13988;52.446;13.280;2022-08-05T01:36:17;23.10;99.90
26262;DHT22;13988;52.446;13.280;2022-08-05T01:38:45;23.00;99.90
26262;DHT22;13988;52.446;13.280;2022-08-05T01:41:13;22.40;99.90
26262;DHT22;13988;52.446;13.280;2022-08-05T01:43:41;22.80;99.90
26262;DHT22;13988;52.446;13.280;2022-08-05T01:46:08;22.70;99.90
26262;DHT22;13988;52.446;13.280;2022-08-05T01:48:34;22.40;99.90
26262;DHT22;13988;52.446;13.280;2022-08-05T01:51:02;22.30;99.90
26262;DHT22;13988;52.446;13.280;2022-08-05T01:53:30;22.70;99.90
26262;DHT22;13988;52.446;13.280;2022-08-05T01:55:59;22.60;99.90
26262;DHT22;13988;52.446;13.280;2022-08-05T01:58:26;22.20;99.90
26262;DHT22;13988;52.446;13.280;2022-08-05T02:00:55;22.20;99.90
26262;DHT22;13988;52.446;13.280;2022-08-05T02:03:36;22.50;99.90
26262;DHT22;13988;52.446;13.280;2022-08-05T02:06:04;22.40;99.90
26262;DHT22;13988;52.446;13.280;2022-08-05T02:08:34;22.50;99.90
26262;DHT22;13988;52.446;13.280;2022-08-05T02:11:08;22.70;99.90
26262;DHT22;13988;52.446;13.280;2022-08-05T02:13:50;22.50;99.90
26262;DHT22;13988;52.446;13.280;2022-08-05T02:19:07;22.70;99.90
26262;DHT22;13988;52.446;13.280;2022-08-05T02:21:39;22.60;99.90
26262;DHT22;13988;52.446;13.280;2022-08-05T02:24:11;22.80;99.90
26262;DHT22;13988;52.446;13.280;2022-08-05T02:26:46;22.70;99.90
26262;DHT22;13988;52.446;13.280;2022-08-05T02:29:16;22.80;99.90
26262;DHT22;13988;52.446;13.280;2022-08-05T02:31:45;22.90;99.90
26262;DHT22;13988;52.446;13.280;2022-08-05T02:34:13;23.00;99.90
26262;DHT22;13988;52.446;13.280;2022-08-05T02:36:49;22.90;99.90
26262;DHT22;13988;52.446;13.280;2022-08-05T02:39:18;22.60;99.90
26262;DHT22;13988;52.446;13.280;2022-08-05T02:41:46;22.20;99.90
26262;DHT22;13988;52.446;13.280;2022-08-05T02:44:29;22.20;99.90
26262;DHT22;13988;52.446;13.280;2022-08-05T02:46:56;22.40;99.90
26262;DHT22;13988;52.446;13.280;2022-08-05T02:49:24;22.40;99.90
26262;DHT22;13988;52.446;13.280;2022-08-05T02:51:50;22.20;99.90
26262;DHT22;13988;52.446;13.280;2022-08-05T02:54:17;22.20;99.90
26262;DHT22;13988;52.446;13.280;2022-08-05T02:56:45;22.20;99.90
26262;DHT22;13988;52.446;13.280;2022-08-05T02:59:12;22.20;99.90
26262;DHT22;13988;52.446;13.280;2022-08-05T03:01:39;22.20;99.90
26262;DHT22;13988;52.446;13.280;2022-08-05T03:04:08;22.30;99.90
26262;DHT22;13988;52.446;13.280;2022-08-05T03:06:35;22.30;99.90
26262;DHT22;13988;52.446;13.280;2022-08-05T03:09:03;22.30;99.90
26262;DHT22;13988;52.446;13.280;2022-08-05T03:11:47;22.40;99.90
26262;DHT22;13988;52.446;13.280;2022-08-05T03:14:13;22.50;99.90
26262;DHT22;13988;52.446;13.280;2022-08-05T03:16:39;22.50;99.90
26262;DHT22;13988;52.446;13.280;2022-08-05T03:19:05;22.50;99.90
26262;DHT22;13988;52.446;13.280;2022-08-05T03:21:31;22.50;99.90
26262;DHT22;13988;52.446;13.280;2022-08-05T03:24:05;22.60;99.90
26262;DHT22;13988;52.446;13.280;2022-08-05T03:26:31;22.50;99.90
26262;DHT22;13988;52.446;13.280;2022-08-05T03:28:57;22.60;99.90
26262;DHT22;13988;52.446;13.280;2022-08-05T03:31:25;22.50;99.90
26262;DHT22;13988;52.446;13.280;2022-08-05T03:33:51;22.60;99.90
26262;DHT22;13988;52.446;13.280;2022-08-05T03:36:17;22.70;99.90
26262;DHT22;13988;52.446;13.280;2022-08-05T03:38:43;22.70;99.90
26262;DHT22;13988;52.446;13.280;2022-08-05T03:41:09;22.60;99.90
26262;DHT22;13988;52.446;13.280;2022-08-05T03:43:35;22.70;99.90
26262;DHT22;13988;52.446;13.280;2022-08-05T03:46:02;22.70;99.90
26262;DHT22;13988;52.446;13.280;2022-08-05T03:48:28;22.80;99.90
26262;DHT22;13988;52.446;13.280;2022-08-05T03:51:10;22.80;99.90
26262;DHT22;13988;52.446;13.280;2022-08-05T03:53:58;22.80;99.90
26262;DHT22;13988;52.446;13.280;2022-08-05T03:56:36;22.90;99.90
26262;DHT22;13988;52.446;13.280;2022-08-05T04:02:16;22.90;99.90
26262;DHT22;13988;52.446;13.280;2022-08-05T04:04:43;22.80;99.90
26262;DHT22;13988;52.446;13.280;2022-08-05T04:07:10;22.80;99.90
26262;DHT22;13988;52.446;13.280;2022-08-05T04:09:36;22.80;99.90
26262;DHT22;13988;52.446;13.280;2022-08-05T04:12:02;22.80;99.90
26262;DHT22;13988;52.446;13.280;2022-08-05T04:14:30;22.80;99.90
26262;DHT22;13988;52.446;13.280;2022-08-05T04:16:57;22.80;99.90
26262;DHT22;13988;52.446;13.280;2022-08-05T04:19:23;22.90;99.90
26262;DHT22;13988;52.446;13.280;2022-08-05T04:21:51;22.90;99.90
26262;DHT22;13988;52.446;13.280;2022-08-05T04:24:17;22.90;99.90
26262;DHT22;13988;52.446;13.280;2022-08-05T04:26:42;23.00;99.90
26262;DHT22;13988;52.446;13.280;2022-08-05T04:29:08;23.00;99.90
26262;DHT22;13988;52.446;13.280;2022-08-05T04:31:34;23.10;99.90
26262;DHT22;13988;52.446;13.280;2022-08-05T04:34:08;23.10;99.90
26262;DHT22;13988;52.446;13.280;2022-08-05T04:36:38;23.20;99.90
26262;DHT22;13988;52.446;13.280;2022-08-05T04:39:04;23.40;99.90
26262;DHT22;13988;52.446;13.280;2022-08-05T04:41:30;23.50;99.90
26262;DHT22;13988;52.446;13.280;2022-08-05T04:43:56;23.50;99.90
26262;DHT22;13988;52.446;13.280;2022-08-05T04:46:22;23.40;99.90
26262;DHT22;13988;52.446;13.280;2022-08-05T04:48:48;23.50;99.90
26262;DHT22;13988;52.446;13.280;2022-08-05T04:51:14;23.50;99.90
26262;DHT22;13988;52.446;13.280;2022-08-05T04:53:41;23.60;99.90
26262;DHT22;13988;52.446;13.280;2022-08-05T04:56:08;23.70;99.90
26262;DHT22;13988;52.446;13.280;2022-08-05T04:58:34;23.70;99.90
26262;DHT22;13988;52.446;13.280;2022-08-05T05:01:00;23.80;99.90
26262;DHT22;13988;52.446;13.280;2022-08-05T05:03:26;23.80;99.90
26262;DHT22;13988;52.446;13.280;2022-08-05T05:05:52;24.00;99.90
26262;DHT22;13988;52.446;13.280;2022-08-05T05:08:18;24.10;99.90
26262;DHT22;13988;52.446;13.280;2022-08-05T05:10:45;24.10;99.90
26262;DHT22;13988;52.446;13.280;2022-08-05T05:13:13;24.20;99.90
26262;DHT22;13988;52.446;13.280;2022-08-05T05:15:41;24.20;99.90
26262;DHT22;13988;52.446;13.280;2022-08-05T05:18:07;24.20;99.90
26262;DHT22;13988;52.446;13.280;2022-08-05T05:20:36;24.20;99.90
26262;DHT22;13988;52.446;13.280;2022-08-05T05:23:03;24.20;99.90
26262;DHT22;13988;52.446;13.280;2022-08-05T05:25:29;24.20;99.90
26262;DHT22;13988;52.446;13.280;2022-08-05T05:27:56;24.30;99.90
26262;DHT22;13988;52.446;13.280;2022-08-05T05:30:22;24.40;99.90
26262;DHT22;13988;52.446;13.280;2022-08-05T05:32:48;24.40;99.90
26262;DHT22;13988;52.446;13.280;2022-08-05T05:35:14;24.40;99.90
26262;DHT22;13988;52.446;13.280;2022-08-05T05:37:51;24.40;99.90
26262;DHT22;13988;52.446;13.280;2022-08-05T05:40:18;24.30;99.90
26262;DHT22;13988;52.446;13.280;2022-08-05T05:42:48;24.40;99.90
26262;DHT22;13988;52.446;13.280;2022-08-05T05:45:15;24.40;99.90
26262;DHT22;13988;52.446;13.280;2022-08-05T05:47:41;24.50;99.90
26262;DHT22;13988;52.446;13.280;2022-08-05T05:50:09;24.30;99.90
26262;DHT22;13988;52.446;13.280;2022-08-05T05:52:35;24.30;99.90
26262;DHT22;13988;52.446;13.280;2022-08-05T05:55:05;24.10;99.90
26262;DHT22;13988;52.446;13.280;2022-08-05T05:57:33;24.00;99.90
26262;DHT22;13988;52.446;13.280;2022-08-05T05:59:59;23.90;99.90
26262;DHT22;13988;52.446;13.280;2022-08-05T06:02:25;23.90;99.90
26262;DHT22;13988;52.446;13.280;2022-08-05T06:04:57;23.80;99.90
26262;DHT22;13988;52.446;13.280;2022-08-05T06:07:23;23.80;99.90
26262;DHT22;13988;52.446;13.280;2022-08-05T06:09:51;23.70;99.90
26262;DHT22;13988;52.446;13.280;2022-08-05T06:12:17;23.70;99.90
26262;DHT22;13988;52.446;13.280;2022-08-05T06:14:42;23.70;99.90
26262;DHT22;13988;52.446;13.280;2022-08-05T06:17:09;23.60;99.90
26262;DHT22;13988;52.446;13.280;2022-08-05T06:19:45;23.80;99.90
26262;DHT22;13988;52.446;13.280;2022-08-05T06:22:10;24.20;99.90
26262;DHT22;13988;52.446;13.280;2022-08-05T06:24:41;24.00;99.90
26262;DHT22;13988;52.446;13.280;2022-08-05T06:27:07;23.70;99.90
26262;DHT22;13988;52.446;13.280;2022-08-05T06:29:33;23.60;99.90
26262;DHT22;13988;52.446;13.280;2022-08-05T06:32:08;23.70;99.90
26262;DHT22;13988;52.446;13.280;2022-08-05T06:34:34;24.30;99.90
26262;DHT22;13988;52.446;13.280;2022-08-05T06:37:03;24.80;99.90
26262;DHT22;13988;52.446;13.280;2022-08-05T06:39:31;25.10;99.90
26262;DHT22;13988;52.446;13.280;2022-08-05T06:41:59;25.10;99.90
26262;DHT22;13988;52.446;13.280;2022-08-05T06:44:28;24.90;99.90
26262;DHT22;13988;52.446;13.280;2022-08-05T06:46:55;24.70;99.90
26262;DHT22;13988;52.446;13.280;2022-08-05T06:49:22;24.80;99.90
26262;DHT22;13988;52.446;13.280;2022-08-05T06:51:55;25.20;99.90
26262;DHT22;13988;52.446;13.280;2022-08-05T06:54:31;25.40;99.90
26262;DHT22;13988;52.446;13.280;2022-08-05T06:56:56;25.30;99.90
26262;DHT22;13988;52.446;13.280;2022-08-05T06:59:22;25.30;99.90
26262;DHT22;13988;52.446;13.280;2022-08-05T07:01:55;25.20;99.90
26262;DHT22;13988;52.446;13.280;2022-08-05T07:04:21;25.30;99.90
26262;DHT22;13988;52.446;13.280;2022-08-05T07:06:47;25.50;99.90
26262;DHT22;13988;52.446;13.280;2022-08-05T07:09:12;25.80;99.90
26262;DHT22;13988;52.446;13.280;2022-08-05T07:11:39;25.80;99.90
26262;DHT22;13988;52.446;13.280;2022-08-05T07:14:12;25.80;99.90
26262;DHT22;13988;52.446;13.280;2022-08-05T07:17:02;25.50;99.90
26262;DHT22;13988;52.446;13.280;2022-08-05T07:19:51;25.40;99.90
26262;DHT22;13988;52.446;13.280;2022-08-05T07:22:18;25.00;99.90
26262;DHT22;13988;52.446;13.280;2022-08-05T07:24:47;24.90;99.90
26262;DHT22;13988;52.446;13.280;2022-08-05T07:27:12;24.60;99.90
26262;DHT22;13988;52.446;13.280;2022-08-05T07:29:38;24.70;99.90
26262;DHT22;13988;52.446;13.280;2022-08-05T07:32:06;24.90;99.90
26262;DHT22;13988;52.446;13.280;2022-08-05T07:34:31;24.70;99.90
26262;DHT22;13988;52.446;13.280;2022-08-05T07:36:57;24.60;99.90
26262;DHT22;13988;52.446;13.280;2022-08-05T07:39:35;24.50;99.90
26262;DHT22;13988;52.446;13.280;2022-08-05T07:42:01;24.30;99.90
26262;DHT22;13988;52.446;13.280;2022-08-05T07:44:27;24.20;99.90
26262;DHT22;13988;52.446;13.280;2022-08-05T07:47:00;24.10;99.90
26262;DHT22;13988;52.446;13.280;2022-08-05T07:49:46;23.80;99.90
26262;DHT22;13988;52.446;13.280;2022-08-05T07:52:44;23.70;99.90
26262;DHT22;13988;52.446;13.280;2022-08-05T07:55:09;23.60;99.90
26262;DHT22;13988;52.446;13.280;2022-08-05T07:57:35;23.80;99.90
26262;DHT22;13988;52.446;13.280;2022-08-05T08:06:28;23.60;99.90
26262;DHT22;13988;52.446;13.280;2022-08-05T08:08:57;23.30;99.90
26262;DHT22;13988;52.446;13.280;2022-08-05T08:11:25;23.70;99.90
26262;DHT22;13988;52.446;13.280;2022-08-05T08:13:53;23.50;99.90
26262;DHT22;13988;52.446;13.280;2022-08-05T08:16:19;23.20;99.90
26262;DHT22;13988;52.446;13.280;2022-08-05T08:18:53;23.60;99.90
26262;DHT22;13988;52.446;13.280;2022-08-05T08:21:19;23.60;99.90
26262;DHT22;13988;52.446;13.280;2022-08-05T08:23:45;23.50;99.90
26262;DHT22;13988;52.446;13.280;2022-08-05T08:26:11;23.50;99.90
26262;DHT22;13988;52.446;13.280;2022-08-05T08:28:52;23.60;99.90
26262;DHT22;13988;52.446;13.280;2022-08-05T08:31:18;23.50;99.90
26262;DHT22;13988;52.446;13.280;2022-08-05T08:33:45;23.90;99.90
26262;DHT22;13988;52.446;13.280;2022-08-05T08:36:10;23.90;99.90
26262;DHT22;13988;52.446;13.280;2022-08-05T08:38:46;23.60;99.90
26262;DHT22;13988;52.446;13.280;2022-08-05T08:41:13;23.60;99.90
26262;DHT22;13988;52.446;13.280;2022-08-05T08:43:49;23.80;99.90
26262;DHT22;13988;52.446;13.280;2022-08-05T08:46:17;23.60;99.90
26262;DHT22;13988;52.446;13.280;2022-08-05T08:48:45;23.70;99.90
26262;DHT22;13988;52.446;13.280;2022-08-05T08:51:13;23.80;99.90
26262;DHT22;13988;52.446;13.280;2022-08-05T08:54:27;23.90;99.90
26262;DHT22;13988;52.446;13.280;2022-08-05T08:56:40;24.00;99.90
26262;DHT22;13988;52.446;13.280;2022-08-05T08:59:06;23.90;99.90
26262;DHT22;13988;52.446;13.280;2022-08-05T09:01:38;23.70;99.90
26262;DHT22;13988;52.446;13.280;2022-08-05T09:04:06;23.80;99.90
26262;DHT22;13988;52.446;13.280;2022-08-05T09:06:33;23.80;99.90
26262;DHT22;13988;52.446;13.280;2022-08-05T09:15:08;23.70;99.90
26262;DHT22;13988;52.446;13.280;2022-08-05T09:17:34;23.90;99.90
26262;DHT22;13988;52.446;13.280;2022-08-05T09:20:03;23.90;99.90
26262;DHT22;13988;52.446;13.280;2022-08-05T09:25:37;24.30;99.90
26262;DHT22;13988;52.446;13.280;2022-08-05T09:28:18;24.30;99.90
26262;DHT22;13988;52.446;13.280;2022-08-05T09:33:55;24.40;99.90
26262;DHT22;13988;52.446;13.280;2022-08-05T09:36:37;24.30;99.90
26262;DHT22;13988;52.446;13.280;2022-08-05T09:39:09;24.40;99.90
26262;DHT22;13988;52.446;13.280;2022-08-05T09:41:54;24.30;99.90
26262;DHT22;13988;52.446;13.280;2022-08-05T09:44:48;24.10;99.90
26262;DHT22;13988;52.446;13.280;2022-08-05T09:47:18;23.80;99.90
26262;DHT22;13988;52.446;13.280;2022-08-05T09:49:48;23.60;99.90
26262;DHT22;13988;52.446;13.280;2022-08-05T09:52:35;23.60;99.90
26262;DHT22;13988;52.446;13.280;2022-08-05T09:55:08;23.60;99.90
26262;DHT22;13988;52.446;13.280;2022-08-05T09:57:40;23.70;99.90
26262;DHT22;13988;52.446;13.280;2022-08-05T10:00:24;23.20;99.90
26262;DHT22;13988;52.446;13.280;2022-08-05T10:02:54;23.00;99.90
26262;DHT22;13988;52.446;13.280;2022-08-05T10:05:23;22.90;99.90
26262;DHT22;13988;52.446;13.280;2022-08-05T10:07:56;23.20;99.90
26262;DHT22;13988;52.446;13.280;2022-08-05T10:10:46;23.70;99.90
26262;DHT22;13988;52.446;13.280;2022-08-05T10:13:36;23.60;99.90
26262;DHT22;13988;52.446;13.280;2022-08-05T10:16:03;23.80;99.90
26262;DHT22;13988;52.446;13.280;2022-08-05T10:18:39;23.90;99.90
26262;DHT22;13988;52.446;13.280;2022-08-05T10:21:05;23.70;99.90
26262;DHT22;13988;52.446;13.280;2022-08-05T10:23:33;24.00;99.90
26262;DHT22;13988;52.446;13.280;2022-08-05T10:26:10;23.90;99.90
26262;DHT22;13988;52.446;13.280;2022-08-05T10:31:37;23.70;99.90
26262;DHT22;13988;52.446;13.280;2022-08-05T10:34:08;23.50;99.90
26262;DHT22;13988;52.446;13.280;2022-08-05T10:36:46;23.30;99.90
26262;DHT22;13988;52.446;13.280;2022-08-05T10:39:18;23.40;99.90
26262;DHT22;13988;52.446;13.280;2022-08-05T10:44:46;23.40;99.90
26262;DHT22;13988;52.446;13.280;2022-08-05T10:47:14;23.70;99.90
26262;DHT22;13988;52.446;13.280;2022-08-05T10:50:00;24.00;99.90
26262;DHT22;13988;52.446;13.280;2022-08-05T10:52:40;24.10;99.90
26262;DHT22;13988;52.446;13.280;2022-08-05T10:55:08;24.20;99.90
26262;DHT22;13988;52.446;13.280;2022-08-05T10:57:38;24.30;99.90
26262;DHT22;13988;52.446;13.280;2022-08-05T11:00:18;23.90;99.90
26262;DHT22;13988;52.446;13.280;2022-08-05T11:05:34;24.00;99.90
26262;DHT22;13988;52.446;13.280;2022-08-05T11:08:02;24.10;99.90
26262;DHT22;13988;52.446;13.280;2022-08-05T11:10:29;24.20;99.90
26262;DHT22;13988;52.446;13.280;2022-08-05T11:12:56;24.70;99.90
26262;DHT22;13988;52.446;13.280;2022-08-05T11:15:28;24.80;99.90
26262;DHT22;13988;52.446;13.280;2022-08-05T11:18:24;25.70;99.90
26262;DHT22;13988;52.446;13.280;2022-08-05T11:20:54;25.50;99.90
26262;DHT22;13988;52.446;13.280;2022-08-05T11:23:41;25.30;99.90
26262;DHT22;13988;52.446;13.280;2022-08-05T11:26:20;25.30;99.90
26262;DHT22;13988;52.446;13.280;2022-08-05T11:28:51;25.70;99.90
26262;DHT22;13988;52.446;13.280;2022-08-05T11:31:18;26.00;99.90
26262;DHT22;13988;52.446;13.280;2022-08-05T11:36:15;27.60;99.90
26262;DHT22;13988;52.446;13.280;2022-08-05T11:41:17;27.20;99.90
26262;DHT22;13988;52.446;13.280;2022-08-05T11:46:41;27.30;99.90
26262;DHT22;13988;52.446;13.280;2022-08-05T11:49:10;28.50;99.90
26262;DHT22;13988;52.446;13.280;2022-08-05T11:51:43;28.80;99.90
26262;DHT22;13988;52.446;13.280;2022-08-05T11:54:11;28.50;99.90
26262;DHT22;13988;52.446;13.280;2022-08-05T11:59:18;28.70;99.90
26262;DHT22;13988;52.446;13.280;2022-08-05T12:02:06;28.20;99.90
26262;DHT22;13988;52.446;13.280;2022-08-05T12:04:44;29.40;99.90
26262;DHT22;13988;52.446;13.280;2022-08-05T12:07:15;29.20;99.90
26262;DHT22;13988;52.446;13.280;2022-08-05T12:09:48;30.50;99.90
26262;DHT22;13988;52.446;13.280;2022-08-05T12:12:24;31.00;99.90
26262;DHT22;13988;52.446;13.280;2022-08-05T12:14:52;30.80;99.90
26262;DHT22;13988;52.446;13.280;2022-08-05T12:17:18;30.50;99.90
26262;DHT22;13988;52.446;13.280;2022-08-05T12:19:57;30.50;99.90
26262;DHT22;13988;52.446;13.280;2022-08-05T12:22:27;30.70;99.90
26262;DHT22;13988;52.446;13.280;2022-08-05T12:24:54;30.80;99.90
26262;DHT22;13988;52.446;13.280;2022-08-05T12:27:25;31.50;99.90
26262;DHT22;13988;52.446;13.280;2022-08-05T12:30:17;31.60;98.80
26262;DHT22;13988;52.446;13.280;2022-08-05T12:32:46;30.20;99.90
26262;DHT22;13988;52.446;13.280;2022-08-05T12:35:15;29.50;99.90
26262;DHT22;13988;52.446;13.280;2022-08-05T12:37:42;29.60;99.90
26262;DHT22;13988;52.446;13.280;2022-08-05T12:40:09;28.40;99.90
26262;DHT22;13988;52.446;13.280;2022-08-05T12:42:35;28.20;99.90
26262;DHT22;13988;52.446;13.280;2022-08-05T12:45:04;28.80;99.90
26262;DHT22;13988;52.446;13.280;2022-08-05T12:47:30;30.50;99.90
26262;DHT22;13988;52.446;13.280;2022-08-05T12:49:56;31.40;99.90
26262;DHT22;13988;52.446;13.280;2022-08-05T12:52:22;31.50;98.70
26262;DHT22;13988;52.446;13.280;2022-08-05T12:57:35;30.20;99.90
26262;DHT22;13988;52.446;13.280;2022-08-05T13:00:02;30.60;99.90
26262;DHT22;13988;52.446;13.280;2022-08-05T13:02:30;29.90;99.90
26262;DHT22;13988;52.446;13.280;2022-08-05T13:04:55;29.40;99.90
26262;DHT22;13988;52.446;13.280;2022-08-05T13:07:24;29.00;99.90
26262;DHT22;13988;52.446;13.280;2022-08-05T13:09:56;29.30;99.90
26262;DHT22;13988;52.446;13.280;2022-08-05T13:12:25;29.00;99.90
26262;DHT22;13988;52.446;13.280;2022-08-05T13:14:59;28.80;99.90
26262;DHT22;13988;52.446;13.280;2022-08-05T13:17:27;28.40;99.90
26262;DHT22;13988;52.446;13.280;2022-08-05T13:20:09;27.90;99.90
26262;DHT22;13988;52.446;13.280;2022-08-05T13:25:49;28.10;99.90
26262;DHT22;13988;52.446;13.280;2022-08-05T13:28:15;28.80;99.90
26262;DHT22;13988;52.446;13.280;2022-08-05T13:30:42;29.90;99.90
26262;DHT22;13988;52.446;13.280;2022-08-05T13:33:07;29.90;99.90
26262;DHT22;13988;52.446;13.280;2022-08-05T13:35:34;29.80;99.90
26262;DHT22;13988;52.446;13.280;2022-08-05T13:40:49;29.70;99.90
26262;DHT22;13988;52.446;13.280;2022-08-05T13:43:14;28.80;99.90
26262;DHT22;13988;52.446;13.280;2022-08-05T13:45:41;28.40;99.90
26262;DHT22;13988;52.446;13.280;2022-08-05T13:51:07;27.80;99.90
26262;DHT22;13988;52.446;13.280;2022-08-05T13:53:33;27.50;99.90
26262;DHT22;13988;52.446;13.280;2022-08-05T13:56:23;27.50;99.90
26262;DHT22;13988;52.446;13.280;2022-08-05T13:58:51;27.70;99.90
26262;DHT22;13988;52.446;13.280;2022-08-05T14:01:17;27.60;99.90
26262;DHT22;13988;52.446;13.280;2022-08-05T14:03:43;27.90;99.90
26262;DHT22;13988;52.446;13.280;2022-08-05T14:06:09;28.40;99.90
26262;DHT22;13988;52.446;13.280;2022-08-05T14:08:38;29.50;99.90
26262;DHT22;13988;52.446;13.280;2022-08-05T14:11:04;29.10;99.90
26262;DHT22;13988;52.446;13.280;2022-08-05T14:13:29;29.00;99.90
26262;DHT22;13988;52.446;13.280;2022-08-05T14:15:55;29.10;99.90
26262;DHT22;13988;52.446;13.280;2022-08-05T14:18:21;29.20;99.90
26262;DHT22;13988;52.446;13.280;2022-08-05T14:20:47;29.00;99.90
26262;DHT22;13988;52.446;13.280;2022-08-05T14:23:13;28.80;99.90
26262;DHT22;13988;52.446;13.280;2022-08-05T14:25:39;29.10;99.90
26262;DHT22;13988;52.446;13.280;2022-08-05T14:28:05;28.90;99.90
26262;DHT22;13988;52.446;13.280;2022-08-05T14:30:30;28.50;99.90
26262;DHT22;13988;52.446;13.280;2022-08-05T14:32:56;28.30;99.90
26262;DHT22;13988;52.446;13.280;2022-08-05T14:35:23;28.40;99.90
26262;DHT22;13988;52.446;13.280;2022-08-05T14:37:49;28.30;99.90
26262;DHT22;13988;52.446;13.280;2022-08-05T14:40:15;27.80;99.90
26262;DHT22;13988;52.446;13.280;2022-08-05T14:42:40;27.90;99.90
26262;DHT22;13988;52.446;13.280;2022-08-05T14:45:07;27.60;99.90
26262;DHT22;13988;52.446;13.280;2022-08-05T14:47:33;27.40;99.90
26262;DHT22;13988;52.446;13.280;2022-08-05T14:49:58;27.30;99.90
26262;DHT22;13988;52.446;13.280;2022-08-05T14:52:24;27.10;99.90
26262;DHT22;13988;52.446;13.280;2022-08-05T14:54:50;27.20;99.90
26262;DHT22;13988;52.446;13.280;2022-08-05T14:57:16;27.10;99.90
26262;DHT22;13988;52.446;13.280;2022-08-05T14:59:41;26.90;99.90
26262;DHT22;13988;52.446;13.280;2022-08-05T15:02:07;26.70;99.90
26262;DHT22;13988;52.446;13.280;2022-08-05T15:04:33;26.60;99.90
26262;DHT22;13988;52.446;13.280;2022-08-05T15:06:58;26.50;99.90
26262;DHT22;13988;52.446;13.280;2022-08-05T15:09:24;26.60;99.90
26262;DHT22;13988;52.446;13.280;2022-08-05T15:11:50;26.30;99.90
26262;DHT22;13988;52.446;13.280;2022-08-05T15:14:29;26.30;99.90
26262;DHT22;13988;52.446;13.280;2022-08-05T15:16:55;26.20;99.90
26262;DHT22;13988;52.446;13.280;2022-08-05T15:19:21;26.30;99.90
26262;DHT22;13988;52.446;13.280;2022-08-05T15:21:46;25.90;99.90
26262;DHT22;13988;52.446;13.280;2022-08-05T15:24:12;25.90;99.90
26262;DHT22;13988;52.446;13.280;2022-08-05T15:26:38;25.60;99.90
26262;DHT22;13988;52.446;13.280;2022-08-05T15:29:04;25.60;99.90
26262;DHT22;13988;52.446;13.280;2022-08-05T15:31:30;25.50;99.90
26262;DHT22;13988;52.446;13.280;2022-08-05T15:33:55;25.60;99.90
26262;DHT22;13988;52.446;13.280;2022-08-05T15:36:42;25.70;99.90
26262;DHT22;13988;52.446;13.280;2022-08-05T15:39:07;25.70;99.90
26262;DHT22;13988;52.446;13.280;2022-08-05T15:41:33;25.60;99.90
26262;DHT22;13988;52.446;13.280;2022-08-05T15:43:58;25.50;99.90
26262;DHT22;13988;52.446;13.280;2022-08-05T15:46:25;25.30;99.90
26262;DHT22;13988;52.446;13.280;2022-08-05T15:48:51;25.30;99.90
26262;DHT22;13988;52.446;13.280;2022-08-05T15:51:17;25.20;99.90
26262;DHT22;13988;52.446;13.280;2022-08-05T15:53:47;24.90;99.90
26262;DHT22;13988;52.446;13.280;2022-08-05T15:56:14;24.70;99.90
26262;DHT22;13988;52.446;13.280;2022-08-05T15:58:40;24.80;99.90
26262;DHT22;13988;52.446;13.280;2022-08-05T16:01:06;24.70;99.90
26262;DHT22;13988;52.446;13.280;2022-08-05T16:03:37;24.70;99.90
26262;DHT22;13988;52.446;13.280;2022-08-05T16:06:02;24.70;99.90
26262;DHT22;13988;52.446;13.280;2022-08-05T16:08:28;24.70;99.90
26262;DHT22;13988;52.446;13.280;2022-08-05T16:10:54;24.60;99.90
26262;DHT22;13988;52.446;13.280;2022-08-05T16:13:20;24.50;99.90
26262;DHT22;13988;52.446;13.280;2022-08-05T16:15:46;24.80;99.90
26262;DHT22;13988;52.446;13.280;2022-08-05T16:18:31;24.50;99.90
26262;DHT22;13988;52.446;13.280;2022-08-05T16:20:57;24.20;99.90
26262;DHT22;13988;52.446;13.280;2022-08-05T16:23:26;24.20;99.90
26262;DHT22;13988;52.446;13.280;2022-08-05T16:26:06;24.20;99.90
26262;DHT22;13988;52.446;13.280;2022-08-05T16:28:33;24.20;99.90
26262;DHT22;13988;52.446;13.280;2022-08-05T16:30:59;24.30;99.90